Time;durP1;ratioP1;P1;durP2;ratioP2;P2;SDS_P1;SDS_P2;PMS_P1;PMS_P2;Temp;Humidity;BMP_temperature;BMP_pressure;BME280_temperature;BME280_humidity;BME280_pressure;Samples;Min_cycle;Max_cycle;Signal;HPM_P1;HPM_P2
2022/12/18 00:01:24;;;;;;;;;;;-4.20;99.90;;;;;;4952971;28;20243;-69
2022/12/18 00:03:50;;;;;;;;;;;-4.10;99.90;;;;;;4934860;29;20272;-69
2022/12/18 00:06:16;;;;;;;;;;;-4.10;99.90;;;;;;4974724;28;20571;-69
2022/12/18 00:08:42;;;;;;;;;;;-4.10;99.90;;;;;;4981823;28;19926;-69
2022/12/18 00:11:08;;;;;;;;;;;-4.20;99.90;;;;;;4953671;28;19927;-69
2022/12/18 00:13:33;;;;;;;;;;;-4.20;99.90;;;;;;4946964;28;20391;-69
2022/12/18 00:16:03;;;;;;;;;;;-4.20;99.90;;;;;;4945628;28;19926;-69
2022/12/18 00:18:29;;;;;;;;;;;-4.20;99.90;;;;;;4946572;28;19922;-69
2022/12/18 00:20:58;;;;;;;;;;;-4.20;99.90;;;;;;4946270;28;20443;-69
2022/12/18 00:23:23;;;;;;;;;;;-4.20;99.90;;;;;;4947892;28;19929;-69
2022/12/18 00:25:49;;;;;;;;;;;-4.20;99.90;;;;;;4953916;28;20847;-69
2022/12/18 00:28:14;;;;;;;;;;;-4.30;99.90;;;;;;4957243;28;19937;-69
2022/12/18 00:30:40;;;;;;;;;;;-4.30;99.90;;;;;;4917583;28;20371;-69
2022/12/18 00:33:06;;;;;;;;;;;-4.30;99.90;;;;;;4948116;28;19926;-69
2022/12/18 00:35:31;;;;;;;;;;;-4.30;99.90;;;;;;4931117;28;20431;-69
2022/12/18 00:37:57;;;;;;;;;;;-4.30;99.90;;;;;;4947046;28;19926;-69
2022/12/18 00:40:23;;;;;;;;;;;-4.30;99.90;;;;;;4942252;28;20036;-70
2022/12/18 00:42:57;;;;;;;;;;;-4.30;99.90;;;;;;4948232;28;19998;-70
2022/12/18 00:45:24;;;;;;;;;;;-4.30;99.90;;;;;;4932180;28;19927;-69
2022/12/18 00:47:49;;;;;;;;;;;-4.40;99.90;;;;;;4948104;28;20021;-69
2022/12/18 00:50:15;;;;;;;;;;;-4.30;99.90;;;;;;4931934;28;20052;-69
2022/12/18 00:52:41;;;;;;;;;;;-4.40;99.90;;;;;;4948795;28;19927;-69
2022/12/18 00:55:06;;;;;;;;;;;-4.40;99.90;;;;;;4947451;28;19938;-69
2022/12/18 00:57:32;;;;;;;;;;;-4.40;99.90;;;;;;4947236;28;19934;-69
2022/12/18 00:59:58;;;;;;;;;;;-4.40;99.90;;;;;;4939501;28;19938;-69
2022/12/18 01:02:23;;;;;;;;;;;-4.40;99.90;;;;;;4940415;29;19926;-69
2022/12/18 01:04:49;;;;;;;;;;;-4.50;99.90;;;;;;4947518;28;19930;-69
2022/12/18 01:07:14;;;;;;;;;;;-4.50;99.90;;;;;;4940735;28;20290;-69
2022/12/18 01:09:40;;;;;;;;;;;-4.50;99.90;;;;;;4949459;28;19926;-69
2022/12/18 01:12:05;;;;;;;;;;;-4.50;99.90;;;;;;4930743;28;19930;-69
2022/12/18 01:14:31;;;;;;;;;;;-4.50;99.90;;;;;;4949455;28;19922;-69
2022/12/18 01:16:57;;;;;;;;;;;-4.50;99.90;;;;;;4934193;28;19927;-69
2022/12/18 01:19:23;;;;;;;;;;;-4.50;99.90;;;;;;4950254;28;20017;-69
2022/12/18 01:21:49;;;;;;;;;;;-4.50;99.90;;;;;;4950921;28;19927;-69
2022/12/18 01:24:14;;;;;;;;;;;-4.50;99.90;;;;;;4958132;28;19933;-69
2022/12/18 01:26:40;;;;;;;;;;;-4.60;99.90;;;;;;4961531;28;20212;-69
2022/12/18 01:29:06;;;;;;;;;;;-4.60;99.90;;;;;;4941577;28;19931;-69
2022/12/18 01:31:32;;;;;;;;;;;-4.60;99.90;;;;;;4959476;28;19922;-69
2022/12/18 01:34:01;;;;;;;;;;;-4.60;99.90;;;;;;4944991;28;20449;-69
2022/12/18 01:36:28;;;;;;;;;;;-4.60;99.90;;;;;;4958360;28;20383;-69
2022/12/18 01:38:54;;;;;;;;;;;-4.70;99.90;;;;;;4965728;28;19926;-69
2022/12/18 01:41:24;;;;;;;;;;;-4.70;99.90;;;;;;4959172;28;19930;-69
2022/12/18 01:43:52;;;;;;;;;;;-4.70;99.90;;;;;;4962755;28;19937;-69
2022/12/18 01:46:18;;;;;;;;;;;-4.70;99.90;;;;;;4941998;28;19930;-69
2022/12/18 01:48:45;;;;;;;;;;;-4.80;99.90;;;;;;4950104;28;20422;-69
2022/12/18 01:51:11;;;;;;;;;;;-4.80;99.90;;;;;;4956979;28;20394;-69
2022/12/18 01:53:38;;;;;;;;;;;-4.80;99.90;;;;;;4941050;28;19933;-69
2022/12/18 01:56:03;;;;;;;;;;;-4.80;99.90;;;;;;4954320;28;20057;-69
2022/12/18 01:58:38;;;;;;;;;;;-4.80;99.90;;;;;;4950527;28;20033;-69
2022/12/18 02:01:04;;;;;;;;;;;-4.90;99.90;;;;;;4949844;28;20403;-69
2022/12/18 02:03:30;;;;;;;;;;;-4.90;99.90;;;;;;4931730;29;19934;-69
2022/12/18 02:06:17;;;;;;;;;;;-4.90;99.90;;;;;;4956077;28;20387;-69
2022/12/18 02:08:51;;;;;;;;;;;-4.90;99.90;;;;;;4948998;28;19927;-69
2022/12/18 02:11:22;;;;;;;;;;;-4.90;99.90;;;;;;4961886;28;19932;-69
2022/12/18 02:13:54;;;;;;;;;;;-4.90;99.90;;;;;;4959989;28;19936;-69
2022/12/18 02:16:26;;;;;;;;;;;-5.00;99.90;;;;;;4951434;28;19977;-69
2022/12/18 02:18:56;;;;;;;;;;;-5.00;99.90;;;;;;4963437;28;20010;-70
2022/12/18 02:21:34;;;;;;;;;;;-5.10;99.90;;;;;;4962773;28;19933;-69
2022/12/18 02:24:12;;;;;;;;;;;-5.10;99.90;;;;;;4942204;28;20299;-70
2022/12/18 02:26:45;;;;;;;;;;;-5.20;99.90;;;;;;4960896;28;19931;-70
2022/12/18 02:29:16;;;;;;;;;;;-5.20;99.90;;;;;;4963547;28;19928;-70
2022/12/18 02:31:44;;;;;;;;;;;-5.30;99.90;;;;;;4967831;28;19926;-70
2022/12/18 02:34:11;;;;;;;;;;;-5.30;99.90;;;;;;4966899;28;20347;-70
2022/12/18 02:36:38;;;;;;;;;;;-5.40;99.90;;;;;;4984637;28;20391;-70
2022/12/18 02:39:05;;;;;;;;;;;-5.40;99.90;;;;;;4932847;29;20379;-70
2022/12/18 02:41:31;;;;;;;;;;;-5.50;99.90;;;;;;4944599;28;19937;-70
2022/12/18 02:43:58;;;;;;;;;;;-5.50;99.90;;;;;;4945911;28;20383;-70
2022/12/18 02:46:26;;;;;;;;;;;-5.50;99.90;;;;;;4949390;28;19985;-69
2022/12/18 02:48:53;;;;;;;;;;;-5.50;99.90;;;;;;4948412;28;19927;-69
2022/12/18 02:51:30;;;;;;;;;;;-5.50;99.90;;;;;;4949349;28;19989;-69
2022/12/18 02:53:59;;;;;;;;;;;-5.60;99.90;;;;;;4944323;29;19922;-69
2022/12/18 02:56:28;;;;;;;;;;;-5.60;99.90;;;;;;4933597;28;19969;-69
2022/12/18 02:58:57;;;;;;;;;;;-5.60;99.90;;;;;;4956938;28;20021;-70
2022/12/18 03:01:25;;;;;;;;;;;-5.70;99.90;;;;;;4949342;28;19945;-69
2022/12/18 03:03:55;;;;;;;;;;;-5.70;99.90;;;;;;4956591;28;19923;-69
2022/12/18 03:06:24;;;;;;;;;;;-5.70;99.90;;;;;;4951946;28;20101;-70
2022/12/18 03:08:53;;;;;;;;;;;-5.70;99.90;;;;;;4967477;28;19969;-70
2022/12/18 03:12:22;;;;;;;;;;;-5.70;99.90;;;;;;4965053;28;20427;-70
2022/12/18 03:14:05;;;;;;;;;;;-5.70;99.90;;;;;;4948567;28;19977;-70
2022/12/18 03:16:31;;;;;;;;;;;-5.80;99.90;;;;;;4933397;29;19926;-70
2022/12/18 03:19:15;;;;;;;;;;;-5.90;99.90;;;;;;4932789;28;20310;-70
2022/12/18 03:21:49;;;;;;;;;;;-5.90;99.90;;;;;;4957953;28;19929;-70
2022/12/18 03:24:15;;;;;;;;;;;-6.00;99.90;;;;;;4946501;28;19926;-70
2022/12/18 03:26:43;;;;;;;;;;;-6.00;99.90;;;;;;4939449;28;19929;-70
2022/12/18 03:29:15;;;;;;;;;;;-6.00;99.90;;;;;;4947256;28;20453;-70
2022/12/18 03:31:42;;;;;;;;;;;-6.00;99.90;;;;;;4932349;29;19929;-69
2022/12/18 03:34:16;;;;;;;;;;;-6.10;99.90;;;;;;4965212;28;19981;-69
2022/12/18 03:36:42;;;;;;;;;;;-6.10;99.90;;;;;;4967864;28;19926;-69
2022/12/18 03:39:08;;;;;;;;;;;-6.10;99.90;;;;;;4944910;28;19937;-69
2022/12/18 03:41:39;;;;;;;;;;;-6.10;99.90;;;;;;4948944;28;19927;-69
2022/12/18 03:44:33;;;;;;;;;;;-6.10;99.90;;;;;;4952011;28;20499;-69
2022/12/18 03:47:11;;;;;;;;;;;-6.10;99.90;;;;;;4918627;28;19929;-69
2022/12/18 03:49:40;;;;;;;;;;;-6.20;99.90;;;;;;4948719;28;20375;-69
2022/12/18 03:52:10;;;;;;;;;;;-6.20;99.90;;;;;;4961116;28;19954;-69
2022/12/18 03:54:36;;;;;;;;;;;-6.30;99.90;;;;;;4948906;28;19927;-69
2022/12/18 03:57:09;;;;;;;;;;;-6.30;99.90;;;;;;4954707;28;19926;-69
2022/12/18 03:59:36;;;;;;;;;;;-6.40;99.90;;;;;;4952835;28;19977;-69
2022/12/18 04:02:03;;;;;;;;;;;-6.40;99.90;;;;;;4949024;28;19930;-69
2022/12/18 04:04:30;;;;;;;;;;;-6.50;99.90;;;;;;4934478;28;19922;-69
2022/12/18 04:06:56;;;;;;;;;;;-6.50;99.90;;;;;;4955330;28;20036;-69
2022/12/18 04:09:21;;;;;;;;;;;-6.60;99.90;;;;;;4953644;28;19954;-69
2022/12/18 04:11:47;;;;;;;;;;;-6.60;99.90;;;;;;4960388;28;19926;-69
2022/12/18 04:14:13;;;;;;;;;;;-6.70;99.90;;;;;;4949815;28;19934;-69
2022/12/18 04:16:39;;;;;;;;;;;-6.70;99.90;;;;;;4937516;29;19930;-69
2022/12/18 04:19:05;;;;;;;;;;;-6.70;99.90;;;;;;4947947;28;20061;-69
2022/12/18 04:21:30;;;;;;;;;;;-6.80;99.90;;;;;;4935103;28;20005;-69
2022/12/18 04:23:56;;;;;;;;;;;-6.80;99.90;;;;;;4958175;28;19926;-69
2022/12/18 04:26:22;;;;;;;;;;;-6.90;99.90;;;;;;4953387;28;20430;-69
2022/12/18 04:28:47;;;;;;;;;;;-6.90;99.90;;;;;;4938437;28;19930;-69
2022/12/18 04:31:13;;;;;;;;;;;-6.90;99.90;;;;;;4942859;28;20079;-69
2022/12/18 04:33:38;;;;;;;;;;;-6.90;99.90;;;;;;4945243;28;20381;-69
2022/12/18 04:36:04;;;;;;;;;;;-6.90;99.90;;;;;;4954407;28;20438;-69
2022/12/18 04:38:30;;;;;;;;;;;-6.90;99.90;;;;;;4937536;28;19941;-69
2022/12/18 04:40:55;;;;;;;;;;;-6.90;99.90;;;;;;4953293;28;19961;-69
2022/12/18 04:43:21;;;;;;;;;;;-7.00;99.90;;;;;;4971616;28;19922;-69
2022/12/18 04:45:47;;;;;;;;;;;-7.00;99.90;;;;;;4933288;28;19934;-69
2022/12/18 04:48:12;;;;;;;;;;;-7.00;99.90;;;;;;4947689;28;19937;-69
2022/12/18 04:50:38;;;;;;;;;;;-6.90;99.90;;;;;;4947661;28;19930;-69
2022/12/18 04:53:04;;;;;;;;;;;-7.00;99.90;;;;;;4932812;28;20025;-69
2022/12/18 04:55:29;;;;;;;;;;;-7.00;99.90;;;;;;4948059;28;19922;-69
2022/12/18 04:57:55;;;;;;;;;;;-7.00;99.90;;;;;;4949624;28;19962;-69
2022/12/18 05:00:20;;;;;;;;;;;-7.00;99.90;;;;;;4949751;28;19933;-69
2022/12/18 05:02:46;;;;;;;;;;;-7.00;99.90;;;;;;4934928;28;19926;-69
2022/12/18 05:05:12;;;;;;;;;;;-7.00;99.90;;;;;;4933445;28;19930;-69
2022/12/18 05:07:37;;;;;;;;;;;-7.00;99.90;;;;;;4948207;28;20399;-69
2022/12/18 05:10:03;;;;;;;;;;;-7.00;99.90;;;;;;4976991;28;20355;-69
2022/12/18 05:12:30;;;;;;;;;;;-7.00;99.90;;;;;;4953929;28;19962;-69
2022/12/18 05:14:56;;;;;;;;;;;-7.00;99.90;;;;;;4947630;28;19922;-69
2022/12/18 05:17:21;;;;;;;;;;;-7.00;99.90;;;;;;4931129;28;19938;-69
2022/12/18 05:19:47;;;;;;;;;;;-7.00;99.90;;;;;;4942515;28;19929;-69
2022/12/18 05:22:12;;;;;;;;;;;-7.00;99.90;;;;;;4971388;28;19923;-70
2022/12/18 05:24:38;;;;;;;;;;;-7.10;99.90;;;;;;4959376;28;20038;-69
2022/12/18 05:27:03;;;;;;;;;;;-7.10;99.90;;;;;;4948561;28;19952;-69
2022/12/18 05:29:29;;;;;;;;;;;-7.10;99.90;;;;;;4954693;28;19923;-69
2022/12/18 05:31:55;;;;;;;;;;;-7.10;99.90;;;;;;4939526;28;20693;-69
2022/12/18 05:34:20;;;;;;;;;;;-7.10;99.90;;;;;;4947287;28;20020;-69
2022/12/18 05:36:46;;;;;;;;;;;-7.20;99.90;;;;;;4946689;28;19973;-69
2022/12/18 05:39:12;;;;;;;;;;;-7.20;99.90;;;;;;4930004;28;19938;-69
2022/12/18 05:41:37;;;;;;;;;;;-7.20;99.90;;;;;;4930649;29;20016;-69
2022/12/18 05:44:06;;;;;;;;;;;-7.20;99.90;;;;;;4931331;29;19926;-69
2022/12/18 05:46:31;;;;;;;;;;;-7.30;99.90;;;;;;4930715;29;19929;-69
2022/12/18 05:49:01;;;;;;;;;;;-7.30;99.90;;;;;;4955164;28;19930;-69
2022/12/18 05:51:26;;;;;;;;;;;-7.20;99.90;;;;;;4952687;28;20323;-69
2022/12/18 05:53:52;;;;;;;;;;;-7.30;99.90;;;;;;4921886;28;19926;-69
2022/12/18 05:56:18;;;;;;;;;;;-7.30;99.90;;;;;;4952613;28;19930;-69
2022/12/18 05:58:44;;;;;;;;;;;-7.30;99.90;;;;;;4946482;28;20315;-69
2022/12/18 06:01:11;;;;;;;;;;;-7.40;99.90;;;;;;4932426;28;19923;-69
2022/12/18 06:03:37;;;;;;;;;;;-7.40;99.90;;;;;;4957698;28;19926;-69
2022/12/18 06:06:03;;;;;;;;;;;-7.40;99.90;;;;;;4968837;28;19929;-69
2022/12/18 06:08:29;;;;;;;;;;;-7.50;99.90;;;;;;4956934;28;19922;-69
2022/12/18 06:10:54;;;;;;;;;;;-7.50;99.90;;;;;;4956000;28;19927;-69
2022/12/18 06:13:20;;;;;;;;;;;-7.50;99.90;;;;;;4950816;28;20385;-69
2022/12/18 06:15:48;;;;;;;;;;;-7.50;99.90;;;;;;4945289;28;20538;-69
2022/12/18 06:18:13;;;;;;;;;;;-7.50;99.90;;;;;;4968330;28;19922;-69
2022/12/18 06:20:41;;;;;;;;;;;-7.50;99.90;;;;;;4956534;28;20410;-69
2022/12/18 06:23:06;;;;;;;;;;;-7.60;99.90;;;;;;4968492;28;19922;-69
2022/12/18 06:25:32;;;;;;;;;;;-7.60;99.90;;;;;;4955086;28;19929;-69
2022/12/18 06:27:58;;;;;;;;;;;-7.70;99.90;;;;;;4964501;28;19937;-69
2022/12/18 06:30:24;;;;;;;;;;;-7.70;99.90;;;;;;4973952;28;19922;-69
2022/12/18 06:32:49;;;;;;;;;;;-7.70;99.90;;;;;;4948692;28;19930;-69
2022/12/18 06:35:15;;;;;;;;;;;-7.80;99.90;;;;;;4946137;28;20727;-69
2022/12/18 06:37:40;;;;;;;;;;;-7.80;99.90;;;;;;4942264;28;19929;-69
2022/12/18 06:40:06;;;;;;;;;;;-7.80;99.90;;;;;;4948536;28;19934;-69
2022/12/18 06:42:32;;;;;;;;;;;-7.80;99.90;;;;;;4949947;28;19929;-69
2022/12/18 06:44:57;;;;;;;;;;;-7.80;99.90;;;;;;4931221;28;20008;-69
2022/12/18 06:47:23;;;;;;;;;;;-7.90;99.90;;;;;;4950091;28;19951;-69
2022/12/18 06:49:49;;;;;;;;;;;-7.90;99.90;;;;;;4949338;28;19934;-69
2022/12/18 06:52:15;;;;;;;;;;;-7.90;99.90;;;;;;4935276;28;20437;-69
2022/12/18 06:54:41;;;;;;;;;;;-8.00;99.90;;;;;;4949582;28;19929;-69
2022/12/18 06:57:06;;;;;;;;;;;-8.00;99.90;;;;;;4940350;28;19923;-69
2022/12/18 06:59:32;;;;;;;;;;;-8.10;99.90;;;;;;4938558;28;20006;-69
2022/12/18 07:01:58;;;;;;;;;;;-8.20;99.90;;;;;;4933704;28;19931;-69
2022/12/18 07:04:27;;;;;;;;;;;-8.20;99.90;;;;;;4950087;28;20376;-69
2022/12/18 07:06:53;;;;;;;;;;;-8.30;99.90;;;;;;4960218;28;19929;-69
2022/12/18 07:09:18;;;;;;;;;;;-8.30;99.90;;;;;;4954780;28;19926;-69
2022/12/18 07:11:44;;;;;;;;;;;-8.30;99.90;;;;;;4939329;28;19958;-69
2022/12/18 07:14:10;;;;;;;;;;;-8.30;99.90;;;;;;4955051;28;20008;-69
2022/12/18 07:16:35;;;;;;;;;;;-8.30;99.90;;;;;;4946530;28;19929;-69
2022/12/18 07:19:01;;;;;;;;;;;-8.40;99.90;;;;;;4949056;28;20505;-69
2022/12/18 07:21:26;;;;;;;;;;;-8.40;99.90;;;;;;4948031;28;20319;-69
2022/12/18 07:23:52;;;;;;;;;;;-8.30;99.90;;;;;;4928818;28;20483;-69
2022/12/18 07:26:19;;;;;;;;;;;-8.30;99.90;;;;;;4949075;28;20306;-69
2022/12/18 07:28:45;;;;;;;;;;;-8.30;99.90;;;;;;4950402;28;19926;-69
2022/12/18 07:31:12;;;;;;;;;;;-8.20;99.90;;;;;;4951079;28;19932;-69
2022/12/18 07:33:37;;;;;;;;;;;-8.10;99.90;;;;;;4951956;28;19934;-70
2022/12/18 07:36:04;;;;;;;;;;;-8.10;99.90;;;;;;4935877;29;20564;-70
2022/12/18 07:38:30;;;;;;;;;;;-8.00;99.90;;;;;;4951189;28;19934;-72
2022/12/18 07:41:25;;;;;;;;;;;-8.00;99.90;;;;;;4947631;29;19923;-70
2022/12/18 07:43:51;;;;;;;;;;;-8.00;99.90;;;;;;4932405;28;19934;-71
2022/12/18 07:46:18;;;;;;;;;;;-7.90;99.90;;;;;;4958588;28;19922;-71
2022/12/18 07:48:49;;;;;;;;;;;-7.90;99.90;;;;;;4937423;29;20076;-70
2022/12/18 07:51:15;;;;;;;;;;;-7.90;99.90;;;;;;4936345;28;19926;-70
2022/12/18 07:53:40;;;;;;;;;;;-7.90;99.90;;;;;;4967284;28;19933;-71
2022/12/18 07:56:08;;;;;;;;;;;-7.90;99.90;;;;;;4963247;28;20286;-70
2022/12/18 07:58:34;;;;;;;;;;;-7.90;99.90;;;;;;4955660;28;19922;-71
2022/12/18 08:01:04;;;;;;;;;;;-7.90;99.90;;;;;;4951382;28;20373;-71
2022/12/18 08:03:31;;;;;;;;;;;-7.90;99.90;;;;;;4967869;28;19981;-70
2022/12/18 08:06:00;;;;;;;;;;;-7.90;99.90;;;;;;4954791;28;20002;-71
2022/12/18 08:08:32;;;;;;;;;;;-7.80;99.90;;;;;;4967503;28;20028;-70
2022/12/18 08:10:59;;;;;;;;;;;-7.80;99.90;;;;;;4943350;28;19933;-71
2022/12/18 08:13:25;;;;;;;;;;;-7.80;99.90;;;;;;4939290;29;19929;-71
2022/12/18 08:16:10;;;;;;;;;;;-7.70;99.90;;;;;;4963139;28;20009;-70
2022/12/18 08:18:36;;;;;;;;;;;-7.70;99.90;;;;;;4935724;28;19964;-70
2022/12/18 08:21:13;;;;;;;;;;;-7.70;99.90;;;;;;4949266;28;19927;-71
2022/12/18 08:23:39;;;;;;;;;;;-7.60;99.90;;;;;;4950330;28;20343;-71
2022/12/18 08:26:05;;;;;;;;;;;-7.50;99.90;;;;;;4950339;28;19933;-70
2022/12/18 08:28:30;;;;;;;;;;;-7.50;99.90;;;;;;4951109;28;19974;-70
2022/12/18 08:30:56;;;;;;;;;;;-7.50;99.90;;;;;;4953464;28;19922;-70
2022/12/18 08:33:21;;;;;;;;;;;-7.40;99.90;;;;;;4961905;28;19923;-71
2022/12/18 08:35:47;;;;;;;;;;;-7.30;99.90;;;;;;4964135;28;19923;-70
2022/12/18 08:38:13;;;;;;;;;;;-7.30;99.90;;;;;;4939128;29;19922;-71
2022/12/18 08:40:38;;;;;;;;;;;-7.20;99.90;;;;;;4950495;28;19933;-70
2022/12/18 08:45:48;;;;;;;;;;;-7.00;99.90;;;;;;4950446;28;19926;-71
2022/12/18 08:48:14;;;;;;;;;;;-7.00;99.90;;;;;;4935386;28;19926;-71
2022/12/18 08:50:39;;;;;;;;;;;-6.90;99.90;;;;;;4953611;28;20481;-70
2022/12/18 08:53:05;;;;;;;;;;;-6.90;99.90;;;;;;4952766;28;20438;-70
2022/12/18 08:55:31;;;;;;;;;;;-6.80;99.90;;;;;;4957122;28;19935;-71
2022/12/18 08:57:56;;;;;;;;;;;-6.70;99.90;;;;;;4954452;28;20013;-71
2022/12/18 09:00:22;;;;;;;;;;;-6.60;99.90;;;;;;4939763;28;20431;-71
2022/12/18 09:02:53;;;;;;;;;;;-6.50;99.90;;;;;;4927754;28;19973;-71
2022/12/18 09:05:19;;;;;;;;;;;-6.40;99.90;;;;;;4934533;28;20387;-71
2022/12/18 09:07:44;;;;;;;;;;;-6.30;99.90;;;;;;4951968;28;19926;-72
2022/12/18 09:10:10;;;;;;;;;;;-6.20;99.90;;;;;;4953593;28;20504;-71
2022/12/18 09:12:36;;;;;;;;;;;-6.10;99.90;;;;;;4962426;28;20555;-71
2022/12/18 09:15:02;;;;;;;;;;;-6.00;99.90;;;;;;4939560;28;20403;-71
2022/12/18 09:17:27;;;;;;;;;;;-5.90;99.90;;;;;;4962550;28;19937;-71
2022/12/18 09:19:54;;;;;;;;;;;-5.80;99.90;;;;;;4938419;28;19926;-70
2022/12/18 09:22:20;;;;;;;;;;;-5.70;99.90;;;;;;4919585;28;20383;-70
2022/12/18 09:24:48;;;;;;;;;;;-5.60;99.90;;;;;;4947336;28;19933;-71
2022/12/18 09:27:14;;;;;;;;;;;-5.40;99.90;;;;;;4958293;28;20013;-70
2022/12/18 09:29:39;;;;;;;;;;;-5.30;99.90;;;;;;4953993;28;20065;-71
2022/12/18 09:32:05;;;;;;;;;;;-5.10;99.90;;;;;;4952011;28;19929;-71
2022/12/18 09:34:30;;;;;;;;;;;-5.00;99.90;;;;;;4955291;28;19926;-71
2022/12/18 09:36:56;;;;;;;;;;;-4.80;99.90;;;;;;4963322;28;19926;-71
2022/12/18 09:39:22;;;;;;;;;;;-4.70;99.90;;;;;;4955483;28;19984;-71
2022/12/18 09:41:53;;;;;;;;;;;-4.60;99.90;;;;;;4940761;28;20283;-71
2022/12/18 09:44:28;;;;;;;;;;;-4.50;99.90;;;;;;4939500;28;19937;-72
2022/12/18 09:47:05;;;;;;;;;;;-4.40;99.90;;;;;;4958153;28;19960;-71
2022/12/18 09:49:33;;;;;;;;;;;-4.40;99.90;;;;;;4936787;28;19926;-71
2022/12/18 09:52:04;;;;;;;;;;;-4.40;99.90;;;;;;4953592;28;19930;-70
2022/12/18 09:54:35;;;;;;;;;;;-4.40;99.90;;;;;;4948986;28;19922;-69
2022/12/18 09:57:01;;;;;;;;;;;-4.40;99.90;;;;;;4953295;28;20258;-69
2022/12/18 09:59:30;;;;;;;;;;;-4.40;99.90;;;;;;4934836;28;19930;-69
2022/12/18 10:01:56;;;;;;;;;;;-4.40;99.90;;;;;;4945090;28;19929;-69
2022/12/18 10:04:22;;;;;;;;;;;-4.30;99.90;;;;;;4941837;28;19922;-69
2022/12/18 10:07:05;;;;;;;;;;;-4.40;99.90;;;;;;4947677;28;20058;-69
2022/12/18 10:09:37;;;;;;;;;;;-4.30;99.90;;;;;;4952712;28;20012;-69
2022/12/18 10:12:09;;;;;;;;;;;-4.30;99.90;;;;;;4962994;28;19976;-69
2022/12/18 10:14:38;;;;;;;;;;;-4.30;99.90;;;;;;4952634;28;19930;-69
2022/12/18 10:17:18;;;;;;;;;;;-4.30;99.90;;;;;;4941370;28;19982;-69
2022/12/18 10:19:49;;;;;;;;;;;-4.30;99.90;;;;;;4952452;28;19930;-69
2022/12/18 10:22:35;;;;;;;;;;;-4.20;99.90;;;;;;4953486;28;19948;-69
2022/12/18 10:25:10;;;;;;;;;;;-4.20;99.90;;;;;;4952625;28;19926;-69
2022/12/18 10:27:35;;;;;;;;;;;-4.20;99.90;;;;;;4952901;28;20367;-69
2022/12/18 10:30:04;;;;;;;;;;;-4.10;99.90;;;;;;4959556;28;19933;-69
2022/12/18 10:32:30;;;;;;;;;;;-4.10;99.90;;;;;;4938268;28;20370;-69
2022/12/18 10:34:57;;;;;;;;;;;-4.00;99.90;;;;;;4957662;28;19929;-69
2022/12/18 10:37:24;;;;;;;;;;;-4.00;99.90;;;;;;4956042;28;19922;-70
2022/12/18 10:40:16;;;;;;;;;;;-3.90;99.90;;;;;;4940740;28;20047;-70
2022/12/18 10:42:43;;;;;;;;;;;-3.80;99.90;;;;;;4967479;28;20465;-69
2022/12/18 10:45:09;;;;;;;;;;;-3.80;99.90;;;;;;4954328;28;19922;-69
2022/12/18 10:47:35;;;;;;;;;;;-3.70;99.90;;;;;;4949909;28;20404;-69
2022/12/18 10:50:01;;;;;;;;;;;-3.60;99.90;;;;;;4955044;28;20523;-69
2022/12/18 11:02:48;;;;;;;;;;;-3.40;99.90;;;;;;3330472;23;19964;-71
2022/12/18 11:18:24;;;;;;;;;;;-3.20;99.90;;;;;;4149166;26;20025;-73
2022/12/18 11:20:51;;;;;;;;;;;-3.10;99.90;;;;;;4950096;28;20283;-74
2022/12/18 11:23:18;;;;;;;;;;;-3.10;99.90;;;;;;4929447;28;19930;-74
2022/12/18 11:25:51;;;;;;;;;;;-3.10;99.90;;;;;;4947732;29;20326;-73
2022/12/18 11:28:36;;;;;;;;;;;-3.10;99.90;;;;;;4949062;29;19931;-74
2022/12/18 11:31:15;;;;;;;;;;;-3.10;99.90;;;;;;4933755;29;19926;-73
2022/12/18 11:33:44;;;;;;;;;;;-3.10;99.90;;;;;;4932109;28;19929;-73
2022/12/18 11:36:10;;;;;;;;;;;-3.10;99.90;;;;;;4951312;28;19923;-73
2022/12/18 11:38:38;;;;;;;;;;;-3.10;99.90;;;;;;4949989;29;19926;-73
2022/12/18 11:41:04;;;;;;;;;;;-3.10;99.90;;;;;;4933770;29;19935;-73
2022/12/18 11:43:33;;;;;;;;;;;-3.00;99.90;;;;;;4950255;29;20297;-73
2022/12/18 11:45:58;;;;;;;;;;;-3.00;99.90;;;;;;4949914;29;19945;-73
2022/12/18 11:48:30;;;;;;;;;;;-3.00;99.90;;;;;;4933991;29;19926;-74
2022/12/18 11:50:56;;;;;;;;;;;-3.00;99.90;;;;;;4950038;29;19922;-74
2022/12/18 11:53:23;;;;;;;;;;;-3.00;99.90;;;;;;4919364;29;19926;-73
2022/12/18 11:55:48;;;;;;;;;;;-3.00;99.90;;;;;;4950098;29;19922;-74
2022/12/18 11:58:14;;;;;;;;;;;-3.00;99.90;;;;;;4950213;28;19932;-74
2022/12/18 12:01:03;;;;;;;;;;;-3.00;99.90;;;;;;4948717;29;19926;-74
2022/12/18 12:03:41;;;;;;;;;;;-3.00;99.90;;;;;;4951126;28;19987;-74
2022/12/18 12:06:18;;;;;;;;;;;-2.90;99.90;;;;;;4949564;29;20017;-74
2022/12/18 12:08:44;;;;;;;;;;;-2.90;99.90;;;;;;4949449;29;19933;-74
2022/12/18 12:11:19;;;;;;;;;;;-2.90;99.90;;;;;;4948328;29;20362;-74
2022/12/18 12:14:03;;;;;;;;;;;-2.90;99.90;;;;;;4933213;29;20017;-73
2022/12/18 12:16:34;;;;;;;;;;;-2.90;99.90;;;;;;4935999;29;19923;-76
2022/12/18 12:19:05;;;;;;;;;;;-2.80;99.90;;;;;;4940442;29;19926;-76
2022/12/18 12:21:37;;;;;;;;;;;-2.80;99.90;;;;;;4939130;29;19927;-75
2022/12/18 12:24:18;;;;;;;;;;;-2.80;99.90;;;;;;4931545;29;19923;-77
2022/12/18 12:27:07;;;;;;;;;;;-2.70;99.90;;;;;;4930409;29;19929;-75
2022/12/18 12:29:55;;;;;;;;;;;-2.70;99.90;;;;;;4946837;29;20212;-77
2022/12/18 12:32:37;;;;;;;;;;;-2.70;99.90;;;;;;4953735;29;19931;-76
2022/12/18 12:35:06;;;;;;;;;;;-2.60;99.90;;;;;;4948867;29;19922;-77
2022/12/18 12:37:46;;;;;;;;;;;-2.60;99.90;;;;;;4946239;29;19962;-77
2022/12/18 12:40:13;;;;;;;;;;;-2.50;99.90;;;;;;4948484;29;19927;-76
2022/12/18 12:45:49;;;;;;;;;;;-2.50;99.90;;;;;;4960080;28;19922;-76
2022/12/18 12:48:33;;;;;;;;;;;-2.50;99.90;;;;;;4960123;29;19946;-77
2022/12/18 12:51:01;;;;;;;;;;;-2.50;99.90;;;;;;4961183;29;19922;-76
2022/12/18 12:53:30;;;;;;;;;;;-2.50;99.90;;;;;;4960096;29;19926;-77
2022/12/18 12:55:56;;;;;;;;;;;-2.50;99.90;;;;;;4933855;29;19930;-77
2022/12/18 12:58:28;;;;;;;;;;;-2.50;99.90;;;;;;4951682;29;19929;-78
2022/12/18 13:01:20;;;;;;;;;;;-2.40;99.90;;;;;;4967863;28;19926;-76
2022/12/18 13:04:07;;;;;;;;;;;-2.40;99.90;;;;;;4964591;28;20033;-76
2022/12/18 13:06:40;;;;;;;;;;;-2.40;99.90;;;;;;4940254;29;19922;-76
2022/12/18 13:09:05;;;;;;;;;;;-2.40;99.90;;;;;;4937832;29;20051;-76
2022/12/18 13:14:32;;;;;;;;;;;-2.40;99.90;;;;;;4944286;29;19930;-77
2022/12/18 13:17:16;;;;;;;;;;;-2.40;99.90;;;;;;4942682;29;19965;-76
2022/12/18 13:19:42;;;;;;;;;;;-2.40;99.90;;;;;;4957710;29;19986;-77
2022/12/18 13:22:20;;;;;;;;;;;-2.40;99.90;;;;;;4936816;29;19923;-75
2022/12/18 13:24:46;;;;;;;;;;;-2.30;99.90;;;;;;4949138;29;19927;-76
2022/12/18 13:27:36;;;;;;;;;;;-2.30;99.90;;;;;;4966806;28;19922;-76
2022/12/18 13:30:02;;;;;;;;;;;-2.30;99.90;;;;;;4931214;29;20359;-78
2022/12/18 13:32:28;;;;;;;;;;;-2.30;99.90;;;;;;4937036;29;19969;-77
2022/12/18 13:35:12;;;;;;;;;;;-2.30;99.90;;;;;;4934518;29;19927;-76
2022/12/18 13:37:42;;;;;;;;;;;-2.30;99.90;;;;;;4937005;29;19929;-76
2022/12/18 13:40:28;;;;;;;;;;;-2.30;99.90;;;;;;4946125;29;19974;-75
2022/12/18 13:43:12;;;;;;;;;;;-2.30;99.90;;;;;;4927619;29;19927;-75
2022/12/18 13:45:43;;;;;;;;;;;-2.30;99.90;;;;;;4959968;28;20302;-75
2022/12/18 13:48:20;;;;;;;;;;;-2.30;99.90;;;;;;4941759;29;19926;-75
2022/12/18 13:50:58;;;;;;;;;;;-2.30;99.90;;;;;;4929399;28;20009;-75
2022/12/18 13:53:44;;;;;;;;;;;-2.30;99.90;;;;;;4923165;29;19930;-75
2022/12/18 13:56:14;;;;;;;;;;;-2.40;99.90;;;;;;4953083;28;20406;-75
2022/12/18 13:58:40;;;;;;;;;;;-2.40;99.90;;;;;;4948530;28;19927;-75
2022/12/18 14:01:20;;;;;;;;;;;-2.40;99.90;;;;;;4948426;29;19981;-75
2022/12/18 14:03:46;;;;;;;;;;;-2.40;99.90;;;;;;4929842;29;20302;-75
2022/12/18 14:06:12;;;;;;;;;;;-2.40;99.90;;;;;;4932438;29;20005;-75
2022/12/18 14:08:40;;;;;;;;;;;-2.40;99.90;;;;;;4915742;29;19965;-75
2022/12/18 14:11:06;;;;;;;;;;;-2.40;99.90;;;;;;4926286;29;19922;-75
2022/12/18 14:13:35;;;;;;;;;;;-2.40;99.90;;;;;;4944835;29;19935;-75
2022/12/18 14:16:02;;;;;;;;;;;-2.50;99.90;;;;;;4926171;29;20694;-75
2022/12/18 14:18:45;;;;;;;;;;;-2.50;99.90;;;;;;4926461;29;19927;-75
2022/12/18 14:21:19;;;;;;;;;;;-2.50;99.90;;;;;;4938952;28;20280;-75
2022/12/18 14:23:45;;;;;;;;;;;-2.50;99.90;;;;;;4925848;29;19974;-75
2022/12/18 14:26:23;;;;;;;;;;;-2.50;99.90;;;;;;4941607;29;19926;-75
2022/12/18 14:28:48;;;;;;;;;;;-2.60;99.90;;;;;;4940425;29;20305;-75
2022/12/18 14:31:24;;;;;;;;;;;-2.60;99.90;;;;;;4972882;28;19923;-75
2022/12/18 14:33:50;;;;;;;;;;;-2.70;99.90;;;;;;4945471;29;20009;-75
2022/12/18 14:36:17;;;;;;;;;;;-2.70;99.90;;;;;;4928992;29;19929;-75
2022/12/18 14:39:03;;;;;;;;;;;-2.70;99.90;;;;;;4970978;28;19965;-75
2022/12/18 14:41:29;;;;;;;;;;;-2.70;99.90;;;;;;4928006;29;19930;-75
2022/12/18 14:43:54;;;;;;;;;;;-2.70;99.90;;;;;;4928472;29;20435;-75
2022/12/18 14:46:35;;;;;;;;;;;-2.80;99.90;;;;;;4927069;29;20014;-75
2022/12/18 14:49:02;;;;;;;;;;;-2.80;99.90;;;;;;4927867;29;19926;-75
2022/12/18 14:51:29;;;;;;;;;;;-2.80;99.90;;;;;;4931557;29;20022;-75
2022/12/18 14:53:55;;;;;;;;;;;-2.80;99.90;;;;;;4918595;29;19934;-75
2022/12/18 14:56:25;;;;;;;;;;;-2.90;99.90;;;;;;4914755;29;20017;-75
2022/12/18 14:58:55;;;;;;;;;;;-2.90;99.90;;;;;;4926177;28;19982;-75